Racecast

Latazah Johnson

Sacramento Speed Factory (CA) · - · STS · Compare head to head

Athlete rating
Races 36
Seasons 2 2013 — 2014
Speed rating — all races

Track & Field

TF speed rating

2014 TF

Sacramento Speed Factory (CA) · Grade -

Date Meet Event Result Place Rating Difficulty PR/SR Flags
2014-07-11 California Games 100m 13.65 36th · 4th on team -0.024
2014-06-20 USATF Pacific Assoc. Junior Olympics (Top 8) 200m 27.98 26th · 6th on team -0.031
2014-06-20 USATF Pacific Assoc. Junior Olympics (Top 8) 100m 14.05 40th · 7th on team -0.031
2014-05-31 Pacific Association Championships (PAC) 200m 27.65 23rd · 5th on team -0.024 ★PR SR
2014-05-31 Pacific Association Championships (PAC) 100m 13.63 24th · 7th on team -0.024
2014-05-24 Central Valley Roadrunners 100m 13.2 10th · 6th on team -0.026 ★PR SR
2014-05-24 Central Valley Roadrunners 100m 13.24 12th · 7th on team -0.026
2014-05-18 3M Invitational 200m 28.41 11th · 2nd on team -0.028
2014-05-03 Hercules Running Rebels/Top Pacers Inv. 100m 13.72 5th · 5th on team -0.038
2014-04-26 Revolution Express TC 400m 1:08.21 22nd · 3rd on team -0.024
2014-04-26 Revolution Express TC 200m 29.39 21st · 4th on team -0.024
2014-04-26 Revolution Express TC 100m 13.88 15th · 4th on team -0.024
2014-04-05 Sacramento Speed Showcase 200m 28.19 13th · 3rd on team -0.033 SR
2014-04-05 Sacramento Speed Showcase 100m 13.35 14th · 3rd on team -0.033 PR SR
2014-04-05 Sacramento Speed Showcase 400m 1:06.89 24th · 2nd on team -0.033 SR
2014-03-22 RPM 100m 14.04 20th · 3rd on team -0.012 SR
2014-03-22 RPM 400m 1:08.84 18th · 2nd on team -0.012 SR

2013 TF

Sacramento Speed Factory (CA) · Grade -

Date Meet Event Result Place Rating Difficulty PR/SR Flags
2013-07-12 Track City Classic 100m 13.67 22nd · 1st on team -0.035 PR SR
2013-07-12 Track City Classic 200m 28.16 25th · 1st on team -0.035 PR SR
2013-06-21 Pacific Association Junior Olympics (3-day) 100m 13.83 31st · 1st on team -0.034 PR SR
2013-06-21 Pacific Association Junior Olympics (3-day) 200m 29.23 35th · 1st on team -0.034
2013-06-21 Pacific Association Junior Olympics (3-day) 400m 1:12.43 42nd · 1st on team -0.034
2013-06-08 Pacific Association Youth Championship (PAC) - 2-day meet 100m 14.09 26th · 3rd on team -0.024
2013-06-08 Pacific Association Youth Championship (PAC) - 2-day meet 200m 28.37 19th · 3rd on team -0.024 PR SR
2013-06-08 Pacific Association Youth Championship (PAC) - 2-day meet 400m 1:07.82 15th · 2nd on team -0.024
2013-05-25 Central Valley Roadrunners (2-day meet) 400m 1:05.89 2nd · 1st on team -0.026 ★PR SR
2013-05-25 Central Valley Roadrunners (2-day meet) 100m 13.92 14th · 1st on team -0.026 PR SR
2013-05-11 Classic Track Club Relays 200m 28.87 11th · 1st on team -0.011 PR SR
2013-05-04 Hercules / Running Rebels (2-day) 400m 1:12.9 43rd · 3rd on team -0.038 PR SR
2013-05-04 Hercules / Running Rebels (2-day) 100m 14.01 42nd · 1st on team -0.038 PR SR
2013-05-04 Hercules / Running Rebels (2-day) 200m 30.47 58th · 2nd on team -0.038
2013-04-27 Revolution Express Track Club 100m 14.3 23rd · 2nd on team -0.024
2013-04-27 Revolution Express Track Club 400m 1:19.99 42nd · 4th on team -0.024 PR SR
2013-04-27 Revolution Express Track Club 200m 30.05 33rd · 3rd on team -0.024 PR SR
2013-04-20 Shor / Sheppard Classic 100m 14.26 28th · 1st on team -0.022 PR SR
2013-04-20 Shor / Sheppard Classic 200m 30.61 43rd · 3rd on team -0.022 PR SR